Time;durP1;ratioP1;P1;durP2;ratioP2;P2;SDS_P1;SDS_P2;PMS_P1;PMS_P2;Temp;Humidity;BMP_temperature;BMP_pressure;BME280_temperature;BME280_humidity;BME280_pressure;Samples;Min_cycle;Max_cycle;Signal;HPM_P1;HPM_P2
2022/01/30 00:02:13;;;;;;;13.95;4.13;;;;;;;8.32;74.23;100929.31;10434643;28;20423;-72
2022/01/30 00:07:14;;;;;;;9.18;3.50;;;;;;;8.34;72.01;100926.56;10398209;28;20049;-70
2022/01/30 00:12:18;;;;;;;9.63;4.20;;;;;;;8.38;72.71;100932.56;10400230;28;20060;-70
2022/01/30 00:17:25;;;;;;;8.53;4.00;;;;;;;8.36;71.68;100921.16;10396488;28;20037;-70
2022/01/30 00:27:47;;;;;;;12.70;3.90;;;;;;;8.33;71.85;100935.44;10409534;28;20084;-70
2022/01/30 00:32:48;;;;;;;13.45;4.35;;;;;;;8.34;72.40;100925.72;10396503;28;20045;-70
2022/01/30 00:38:15;;;;;;;12.02;4.30;;;;;;;8.51;72.11;100932.66;10392832;28;20099;-71
2022/01/30 00:43:18;;;;;;;14.70;4.15;;;;;;;8.49;71.62;100933.59;10397759;28;20057;-72
2022/01/30 00:48:20;;;;;;;9.50;3.92;;;;;;;8.38;71.03;100941.34;10402318;28;20057;-69
2022/01/30 00:53:21;;;;;;;10.75;3.15;;;;;;;8.32;64.43;100928.47;10406504;28;20404;-68
2022/01/30 00:58:23;;;;;;;11.30;3.65;;;;;;;8.41;66.25;100941.16;10403456;28;20045;-69
2022/01/30 01:03:24;;;;;;;15.00;3.67;;;;;;;8.35;64.80;100938.00;10401257;28;20054;-70
2022/01/30 01:08:46;;;;;;;8.68;4.22;;;;;;;8.34;65.77;100945.13;10404067;28;20049;-69
2022/01/30 01:20:53;;;;;;;10.60;3.72;;;;;;;8.31;65.71;100946.16;10403377;28;20104;-69
2022/01/30 01:24:50;;;;;;;9.98;4.40;;;;;;;8.24;66.37;100941.31;10401124;28;20060;-70
2022/01/30 01:29:52;;;;;;;13.15;4.28;;;;;;;8.30;66.02;100949.78;10404930;28;20053;-70
2022/01/30 01:34:54;;;;;;;9.98;3.95;;;;;;;8.32;67.14;100947.03;10405136;28;20311;-71
2022/01/30 01:39:55;;;;;;;10.75;3.25;;;;;;;8.31;66.91;100947.97;10399279;28;20049;-71
2022/01/30 01:44:58;;;;;;;10.15;4.75;;;;;;;8.19;67.25;100935.44;10403603;28;20078;-71
2022/01/30 01:50:00;;;;;;;12.38;3.45;;;;;;;8.16;65.56;100959.50;10401163;28;20578;-71
2022/01/30 01:55:02;;;;;;;11.13;4.13;;;;;;;8.13;65.60;100956.06;10400737;28;20474;-70
2022/01/30 02:00:04;;;;;;;9.43;3.38;;;;;;;8.17;65.14;100971.78;10404060;28;20180;-69
2022/01/30 02:05:08;;;;;;;14.23;4.43;;;;;;;8.16;66.39;100955.03;10397400;28;20107;-71
2022/01/30 02:10:18;;;;;;;13.20;3.92;;;;;;;8.32;66.85;100978.84;10433872;28;20353;-71
2022/01/30 02:25:49;;;;;;;16.15;4.07;;;;;;;8.05;61.27;100984.84;10434934;28;20292;-70
2022/01/30 02:31:13;;;;;;;10.98;3.33;;;;;;;8.07;62.55;100993.53;10425621;28;20408;-70
2022/01/30 02:36:14;;;;;;;5.97;3.42;;;;;;;7.96;61.89;101002.13;10423921;28;20044;-70
2022/01/30 02:41:16;;;;;;;7.85;2.63;;;;;;;7.95;60.77;100983.66;10422257;28;20167;-70
2022/01/30 02:46:30;;;;;;;9.98;3.75;;;;;;;7.93;61.07;100975.78;10421173;28;20097;-70
2022/01/30 02:51:35;;;;;;;9.30;2.50;;;;;;;7.87;60.75;100970.00;10414689;28;20064;-71
2022/01/30 02:56:37;;;;;;;10.35;2.88;;;;;;;7.88;61.04;100991.13;10398696;28;20398;-70
2022/01/30 03:01:39;;;;;;;11.68;3.22;;;;;;;7.75;60.69;100996.25;10395394;28;20045;-70
2022/01/30 03:06:41;;;;;;;9.63;3.30;;;;;;;7.72;60.28;101028.25;10395026;28;20068;-71
2022/01/30 03:11:43;;;;;;;9.80;3.20;;;;;;;7.73;61.13;101015.84;10393068;28;20063;-69
2022/01/30 03:16:44;;;;;;;9.48;3.25;;;;;;;7.61;61.56;101030.63;10390442;28;20219;-70
2022/01/30 03:21:46;;;;;;;7.93;2.75;;;;;;;7.57;60.76;101032.59;10400066;28;20463;-70
2022/01/30 03:26:48;;;;;;;8.75;4.72;;;;;;;7.47;59.89;101041.16;10390673;28;20049;-70
2022/01/30 03:31:49;;;;;;;10.77;3.25;;;;;;;7.46;61.19;101063.28;10393286;28;20493;-70
2022/01/30 03:36:52;;;;;;;10.27;3.22;;;;;;;7.52;60.69;101054.97;10395195;28;20276;-71
2022/01/30 03:41:53;;;;;;;7.15;3.45;;;;;;;7.31;59.56;101054.34;10395037;28;20049;-71
2022/01/30 03:46:54;;;;;;;8.93;2.80;;;;;;;7.30;60.53;101066.75;10394386;28;20661;-70
2022/01/30 03:51:57;;;;;;;8.30;3.28;;;;;;;7.28;60.12;101073.94;10390397;28;20100;-70
2022/01/30 03:56:59;;;;;;;10.65;3.33;;;;;;;7.28;59.98;101071.28;10390074;28;20042;-69
2022/01/30 04:02:01;;;;;;;11.30;2.63;;;;;;;7.29;59.56;101067.69;10391476;28;20081;-70
2022/01/30 04:07:03;;;;;;;12.20;3.08;;;;;;;7.26;58.46;101070.50;10400267;28;20059;-70
2022/01/30 04:12:05;;;;;;;10.80;5.03;;;;;;;7.09;57.64;101079.34;10397682;28;20156;-69
2022/01/30 04:17:09;;;;;;;12.52;5.53;;;;;;;7.00;58.63;101082.50;10402119;28;20122;-70
2022/01/30 04:22:10;;;;;;;9.13;5.20;;;;;;;6.98;57.37;101095.81;10396288;28;20369;-70
2022/01/30 04:27:12;;;;;;;10.07;5.97;;;;;;;7.03;57.99;101100.84;10401124;28;20056;-70
2022/01/30 04:32:14;;;;;;;9.25;4.97;;;;;;;6.89;58.11;101090.97;10390192;28;20057;-72
2022/01/30 04:37:36;;;;;;;12.95;5.15;;;;;;;6.83;56.92;101093.94;10394447;28;20243;-70
2022/01/30 04:59:09;;;;;;;10.82;6.90;;;;;;;6.47;59.72;101097.50;10392713;28;20083;-70
2022/01/30 05:03:59;;;;;;;14.88;6.38;;;;;;;6.64;60.06;101109.91;10401580;28;20053;-69
2022/01/30 05:09:00;;;;;;;13.00;6.68;;;;;;;6.66;59.40;101114.16;10403989;28;20076;-69
2022/01/30 05:14:03;;;;;;;10.52;6.60;;;;;;;6.65;59.40;101107.19;10405003;28;20092;-71
2022/01/30 05:19:04;;;;;;;12.93;6.28;;;;;;;6.58;58.07;101111.06;10393437;28;20502;-68
2022/01/30 05:24:06;;;;;;;12.93;6.68;;;;;;;6.73;59.78;101126.16;10398863;28;20106;-70
2022/01/30 05:29:08;;;;;;;15.68;7.07;;;;;;;6.73;59.47;101134.09;10394473;28;20521;-70
2022/01/30 05:34:10;;;;;;;11.50;5.93;;;;;;;6.89;59.40;101159.78;10394064;28;20337;-72
2022/01/30 05:39:12;;;;;;;14.13;6.60;;;;;;;6.99;60.25;101153.09;10399853;28;20053;-71
2022/01/30 05:44:18;;;;;;;12.00;6.15;;;;;;;7.07;58.45;101161.50;10408420;28;20125;-70
2022/01/30 05:49:21;;;;;;;12.30;6.50;;;;;;;6.94;59.08;101171.00;10431489;28;20092;-70
2022/01/30 05:54:22;;;;;;;16.80;6.57;;;;;;;6.83;59.80;101178.63;10408178;28;20059;-70
2022/01/30 05:59:24;;;;;;;13.15;5.40;;;;;;;6.90;59.14;101180.91;10408529;28;20061;-69
2022/01/30 06:04:25;;;;;;;12.32;5.22;;;;;;;6.76;59.72;101185.16;10402268;28;20045;-69
2022/01/30 06:09:27;;;;;;;16.42;7.28;;;;;;;6.72;58.87;101165.91;10403373;28;20057;-70
2022/01/30 06:14:28;;;;;;;10.70;7.70;;;;;;;6.76;59.08;101172.78;10402272;28;20052;-71
2022/01/30 06:19:30;;;;;;;10.48;6.85;;;;;;;6.91;59.45;101160.56;10405640;28;20207;-71
2022/01/30 06:24:31;;;;;;;13.00;6.82;;;;;;;7.05;58.33;101157.22;10399556;28;21144;-70
2022/01/30 06:29:32;;;;;;;13.38;7.30;;;;;;;6.93;59.29;101163.13;10391461;28;20046;-69
2022/01/30 06:34:34;;;;;;;12.48;7.68;;;;;;;6.82;58.94;101161.03;10393001;28;20045;-69
2022/01/30 06:39:35;;;;;;;12.82;7.30;;;;;;;6.81;59.39;101169.91;10403658;28;20132;-70
2022/01/30 06:44:37;;;;;;;11.10;6.40;;;;;;;6.54;60.42;101181.78;10405421;28;20056;-70
2022/01/30 06:49:39;;;;;;;11.73;6.63;;;;;;;6.51;61.54;101178.41;10399019;28;20894;-69
2022/01/30 06:54:42;;;;;;;12.30;6.93;;;;;;;6.66;60.85;101188.25;10403863;28;20501;-68
2022/01/30 06:59:43;;;;;;;13.45;7.47;;;;;;;6.40;62.37;101204.56;10398773;28;20594;-71
2022/01/30 07:04:45;;;;;;;13.52;7.70;;;;;;;6.45;61.91;101211.31;10400285;28;20660;-69
2022/01/30 07:09:46;;;;;;;16.88;8.52;;;;;;;6.33;61.18;101233.06;10398943;28;20180;-70
2022/01/30 07:14:48;;;;;;;15.60;6.57;;;;;;;6.41;60.97;101230.03;10426489;28;20044;-69
2022/01/30 07:19:49;;;;;;;11.05;7.15;;;;;;;6.11;63.30;101238.47;10405134;28;20049;-69
2022/01/30 07:24:50;;;;;;;13.75;6.65;;;;;;;5.99;64.06;101240.78;10403526;28;20051;-71
2022/01/30 07:29:52;;;;;;;10.50;6.60;;;;;;;5.93;65.67;101243.66;10401658;28;20694;-72
2022/01/30 07:34:54;;;;;;;7.55;6.70;;;;;;;5.96;63.69;101254.09;10403915;28;20053;-74
2022/01/30 07:39:59;;;;;;;10.25;6.63;;;;;;;6.11;63.86;101251.69;10399161;28;20041;-73
2022/01/30 07:45:00;;;;;;;;;;;;;;;6.21;63.68;101255.63;10400183;28;20110;-71
2022/01/30 07:50:02;;;;;;;8.73;6.28;;;;;;;6.42;63.83;101263.50;10392330;28;19927;-71
2022/01/30 07:55:04;;;;;;;9.27;2.83;;;;;;;6.32;64.13;101253.38;10397351;28;20041;-71
2022/01/30 08:00:07;;;;;;;7.22;2.00;;;;;;;6.25;62.96;101262.50;10428823;28;20049;-71
2022/01/30 08:05:09;;;;;;;5.40;2.05;;;;;;;6.49;63.23;101251.72;10399145;28;20064;-71
2022/01/30 08:10:10;;;;;;;7.60;2.58;;;;;;;6.39;63.96;101253.06;10394704;28;20136;-70
2022/01/30 08:15:12;;;;;;;9.82;2.65;;;;;;;6.15;63.62;101240.06;10395661;28;20067;-71
2022/01/30 08:20:13;;;;;;;12.48;3.33;;;;;;;6.23;63.87;101248.50;10397595;28;20054;-70
2022/01/30 08:25:19;;;;;;;8.50;2.70;;;;;;;6.58;64.17;101239.84;10420762;28;20080;-68
2022/01/30 08:30:21;;;;;;;7.70;3.05;;;;;;;6.53;63.82;101224.16;10406620;28;20061;-71
2022/01/30 08:35:22;;;;;;;11.15;3.28;;;;;;;6.39;63.99;101206.31;10397026;28;20067;-70
2022/01/30 08:40:25;;;;;;;6.47;2.42;;;;;;;6.47;62.96;101193.59;10403925;28;20049;-68
2022/01/30 08:45:26;;;;;;;11.27;3.20;;;;;;;6.37;62.46;101198.47;10392095;28;20049;-69
2022/01/30 08:50:28;;;;;;;8.38;2.60;;;;;;;6.43;60.90;101196.47;10397476;28;20052;-69
2022/01/30 08:55:29;;;;;;;8.93;2.90;;;;;;;6.50;60.96;101192.56;10399119;28;20073;-70
2022/01/30 09:00:31;;;;;;;10.10;3.05;;;;;;;6.65;61.10;101190.97;10431960;28;20069;-71
2022/01/30 09:05:33;;;;;;;9.85;3.13;;;;;;;6.72;60.65;101203.84;10413847;28;20060;-71
2022/01/30 09:10:37;;;;;;;19.65;3.95;;;;;;;6.93;59.72;101206.34;10417402;28;20060;-68
2022/01/30 09:15:42;;;;;;;9.75;2.40;;;;;;;6.84;59.26;101215.59;10415547;28;20528;-71
2022/01/30 09:20:44;;;;;;;8.95;2.45;;;;;;;6.94;57.65;101207.22;10436346;28;20518;-69
2022/01/30 09:25:46;;;;;;;7.88;2.30;;;;;;;7.16;57.01;101212.25;10403432;28;20503;-71
2022/01/30 09:30:48;;;;;;;10.15;2.63;;;;;;;7.18;56.59;101226.31;10405013;28;20419;-70
2022/01/30 09:35:49;;;;;;;8.07;2.70;;;;;;;7.01;56.17;101230.66;10402779;28;20453;-69
2022/01/30 09:40:54;;;;;;;12.10;2.85;;;;;;;7.10;56.08;101241.69;10401842;28;20136;-70
2022/01/30 09:45:58;;;;;;;13.23;2.80;;;;;;;7.02;55.47;101242.94;10401088;28;20144;-69
2022/01/30 09:51:02;;;;;;;7.50;2.50;;;;;;;7.18;53.58;101255.44;10363652;28;20052;-70
2022/01/30 09:56:06;;;;;;;10.80;2.83;;;;;;;7.12;52.71;101255.75;10409742;28;22354;-71
2022/01/30 10:01:08;;;;;;;9.10;3.28;;;;;;;6.95;53.24;101256.56;10406432;28;20049;-71
2022/01/30 10:06:15;;;;;;;10.98;3.15;;;;;;;7.00;54.34;101250.09;10441673;28;20057;-71
2022/01/30 10:11:34;;;;;;;12.10;2.95;;;;;;;7.12;54.58;101258.38;10406977;28;20155;-71
2022/01/30 10:16:44;;;;;;;12.02;3.95;;;;;;;7.23;53.90;101245.44;10403771;28;20067;-70
2022/01/30 10:22:08;;;;;;;7.38;3.30;;;;;;;7.15;53.14;101259.06;10401683;28;20135;-71
2022/01/30 10:27:21;;;;;;;11.98;4.13;;;;;;;7.32;54.01;101252.91;10401931;28;20334;-70
2022/01/30 10:32:23;;;;;;;11.48;2.65;;;;;;;7.25;53.35;101268.28;10401135;28;20049;-71
2022/01/30 10:37:24;;;;;;;12.15;3.25;;;;;;;7.57;53.40;101270.22;10403603;28;20056;-70
2022/01/30 10:42:38;;;;;;;8.88;3.42;;;;;;;7.53;53.04;101298.66;10407881;28;20411;-70
2022/01/30 10:47:42;;;;;;;16.10;3.50;;;;;;;7.26;53.59;101303.56;10405328;28;20052;-71
2022/01/30 10:52:52;;;;;;;9.68;3.17;;;;;;;7.18;52.39;101313.69;10403739;28;20049;-70
2022/01/30 10:57:58;;;;;;;10.60;3.22;;;;;;;7.10;53.74;101323.78;10410747;28;20124;-68
2022/01/30 11:02:59;;;;;;;9.95;3.10;;;;;;;7.30;53.06;101321.00;10406033;28;20461;-71
2022/01/30 11:08:01;;;;;;;11.35;3.78;;;;;;;7.07;53.38;101336.25;10404301;28;20284;-70
2022/01/30 11:13:08;;;;;;;11.00;3.13;;;;;;;7.08;53.07;101327.34;10397970;28;20242;-70
2022/01/30 11:18:12;;;;;;;9.85;3.22;;;;;;;6.97;53.14;101329.69;10407278;28;20144;-70
2022/01/30 11:23:15;;;;;;;10.10;2.97;;;;;;;7.07;53.13;101328.31;10408184;28;20272;-70
2022/01/30 11:28:17;;;;;;;11.38;3.28;;;;;;;7.31;53.67;101335.97;10425813;28;20113;-70
2022/01/30 11:33:24;;;;;;;13.65;3.55;;;;;;;7.13;52.04;101345.69;10437091;28;20064;-70
2022/01/30 11:38:26;;;;;;;14.43;3.22;;;;;;;7.25;52.59;101350.38;10429133;28;20090;-71
2022/01/30 11:43:32;;;;;;;11.73;4.00;;;;;;;8.39;50.04;101338.38;10400391;28;20049;-70
2022/01/30 11:48:35;;;;;;;14.13;2.90;;;;;;;7.69;49.77;101332.34;10395827;28;20057;-70
2022/01/30 11:53:37;;;;;;;13.30;3.67;;;;;;;7.42;51.30;101333.63;10393717;28;20134;-70
2022/01/30 11:58:45;;;;;;;10.20;3.92;;;;;;;7.63;51.70;101332.63;10401630;28;20412;-70
2022/01/30 12:03:59;;;;;;;10.15;4.38;;;;;;;7.31;50.79;101328.03;10400354;28;20041;-70
2022/01/30 12:09:25;;;;;;;16.45;3.85;;;;;;;7.34;51.69;101338.47;10417619;28;20057;-70
2022/01/30 12:14:28;;;;;;;15.45;4.85;;;;;;;7.23;52.62;101338.13;10423229;28;20169;-71
2022/01/30 12:20:09;;;;;;;12.02;3.60;;;;;;;7.47;52.48;101332.56;10429240;28;20061;-70
2022/01/30 12:25:25;;;;;;;14.10;4.80;;;;;;;7.21;53.11;101334.72;10389453;28;20174;-70
2022/01/30 12:30:35;;;;;;;10.88;3.65;;;;;;;7.13;54.23;101334.22;10393384;28;20057;-73
2022/01/30 12:35:44;;;;;;;8.82;3.33;;;;;;;7.18;53.10;101348.97;10425279;28;20055;-70
2022/01/30 12:40:50;;;;;;;15.18;4.40;;;;;;;6.98;53.89;101349.06;10398996;28;20065;-70
2022/01/30 12:46:13;;;;;;;11.85;4.07;;;;;;;7.40;51.79;101329.34;10398175;28;20615;-69
2022/01/30 12:51:15;;;;;;;15.57;3.58;;;;;;;7.89;51.88;101312.75;10404428;28;20186;-70
2022/01/30 12:56:17;;;;;;;11.88;3.20;;;;;;;8.66;47.98;101313.94;10404285;28;20048;-70
2022/01/30 13:01:25;;;;;;;10.48;3.53;;;;;;;9.23;46.75;101307.19;10402339;28;20060;-71
2022/01/30 13:06:36;;;;;;;12.30;3.78;;;;;;;8.52;47.33;101292.63;10402002;28;20073;-71
2022/01/30 13:11:38;;;;;;;14.48;3.95;;;;;;;8.50;48.26;101298.03;10402268;28;20060;-71
2022/01/30 13:16:44;;;;;;;12.90;3.95;;;;;;;8.23;48.91;101290.59;10433809;28;20329;-70
2022/01/30 13:21:46;;;;;;;13.98;4.93;;;;;;;8.33;49.31;101280.31;10400711;28;20067;-68
2022/01/30 13:26:56;;;;;;;13.45;3.85;;;;;;;8.60;49.44;101271.81;10403508;28;20519;-70
2022/01/30 13:31:59;;;;;;;17.83;5.68;;;;;;;8.81;48.80;101278.56;10405712;28;20083;-70
2022/01/30 13:37:06;;;;;;;13.75;4.28;;;;;;;9.01;48.55;101281.91;10438282;28;20458;-70
2022/01/30 13:42:32;;;;;;;14.23;3.92;;;;;;;8.70;48.67;101286.28;10404930;28;20677;-69
2022/01/30 13:47:34;;;;;;;18.15;4.47;;;;;;;8.35;50.61;101288.19;10398429;28;20048;-69
2022/01/30 13:52:35;;;;;;;11.38;3.80;;;;;;;8.48;49.33;101282.19;10406513;28;20473;-69
2022/01/30 13:57:40;;;;;;;9.65;3.03;;;;;;;8.59;48.81;101281.56;10397881;28;20055;-69
2022/01/30 14:02:57;;;;;;;13.20;3.88;;;;;;;8.39;49.35;101260.56;10395307;28;20971;-69
2022/01/30 14:08:00;;;;;;;9.30;3.95;;;;;;;8.49;49.38;101281.22;10404235;28;20087;-71
2022/01/30 14:13:12;;;;;;;11.07;4.57;;;;;;;8.14;49.73;101278.69;10397180;28;20060;-71
2022/01/30 14:18:20;;;;;;;14.68;3.78;;;;;;;8.44;49.53;101270.00;10399669;28;20112;-70
2022/01/30 14:23:22;;;;;;;14.30;3.58;;;;;;;9.09;47.40;101276.13;10396535;28;20124;-70
2022/01/30 14:28:30;;;;;;;15.15;4.95;;;;;;;8.90;48.06;101268.38;10396732;28;20049;-70
2022/01/30 14:33:32;;;;;;;10.18;4.85;;;;;;;8.45;48.54;101279.69;10395931;28;20279;-71
2022/01/30 14:38:33;;;;;;;17.55;4.90;;;;;;;8.13;49.47;101284.91;10440339;28;20068;-70
2022/01/30 14:43:34;;;;;;;13.98;5.20;;;;;;;8.12;48.82;101279.69;10400134;28;20145;-70
2022/01/30 14:48:37;;;;;;;15.20;4.88;;;;;;;8.55;48.91;101281.84;10423013;28;20052;-71
2022/01/30 14:53:38;;;;;;;16.95;4.88;;;;;;;8.46;47.27;101276.09;10392757;28;20434;-70
2022/01/30 14:58:39;;;;;;;15.27;4.47;;;;;;;8.43;46.14;101256.81;10393342;28;20148;-70
2022/01/30 15:03:41;;;;;;;11.43;3.58;;;;;;;8.37;44.82;101249.19;10397602;28;20056;-71
2022/01/30 15:08:42;;;;;;;13.80;3.30;;;;;;;8.11;46.43;101259.44;10395466;28;20040;-71
2022/01/30 15:13:46;;;;;;;8.35;3.92;;;;;;;7.87;46.53;101256.31;10399416;28;20140;-70
2022/01/30 15:18:48;;;;;;;9.23;3.40;;;;;;;7.99;47.31;101255.63;10408367;28;20056;-70
2022/01/30 15:23:49;;;;;;;9.68;4.38;;;;;;;7.75;46.75;101234.78;10406521;28;20664;-69
2022/01/30 15:28:51;;;;;;;9.90;3.65;;;;;;;7.74;47.03;101234.88;10425942;28;20075;-71
2022/01/30 15:33:53;;;;;;;9.43;4.07;;;;;;;7.70;47.80;101233.31;10396366;28;20132;-70
2022/01/30 15:38:56;;;;;;;15.23;4.47;;;;;;;7.43;48.04;101224.09;10406941;28;20048;-70
2022/01/30 15:44:00;;;;;;;14.55;4.68;;;;;;;7.65;48.13;101225.63;10402167;28;20053;-70
2022/01/30 15:49:20;;;;;;;16.60;4.95;;;;;;;7.60;48.40;101227.66;10406004;28;20341;-70
2022/01/30 15:54:22;;;;;;;14.90;4.45;;;;;;;7.57;48.49;101218.06;10402868;28;20045;-71
2022/01/30 15:59:23;;;;;;;11.70;5.13;;;;;;;7.59;48.92;101220.66;10400303;28;20134;-71
2022/01/30 16:04:25;;;;;;;14.52;4.75;;;;;;;7.51;48.62;101215.75;10404562;28;20055;-72
2022/01/30 16:09:33;;;;;;;14.68;4.47;;;;;;;7.36;47.70;101209.47;10397344;28;20073;-71
2022/01/30 16:19:54;;;;;;;16.30;7.60;;;;;;;7.34;49.42;101210.47;10395307;28;20484;-69
2022/01/30 16:24:55;;;;;;;16.45;9.02;;;;;;;7.37;49.09;101210.31;10400520;28;20041;-69
2022/01/30 16:29:57;;;;;;;22.45;7.55;;;;;;;7.18;49.09;101210.41;10397642;28;20130;-71
2022/01/30 16:34:59;;;;;;;17.15;7.88;;;;;;;7.05;48.86;101210.16;10397050;28;20057;-73
2022/01/30 16:40:02;;;;;;;14.25;5.35;;;;;;;7.04;49.72;101216.38;10401521;28;20064;-70
2022/01/30 16:45:15;;;;;;;17.17;8.52;;;;;;;7.32;48.89;101213.19;10397821;28;20050;-69
2022/01/30 16:50:16;;;;;;;17.58;6.82;;;;;;;7.31;50.26;101210.63;10360428;28;20091;-70
2022/01/30 16:55:18;;;;;;;14.23;5.55;;;;;;;7.48;49.61;101207.97;10351330;28;20048;-70
2022/01/30 17:00:20;;;;;;;17.63;4.57;;;;;;;7.36;50.73;101208.59;10352388;28;20236;-69
2022/01/30 17:05:22;;;;;;;17.65;5.45;;;;;;;7.63;50.40;101195.69;10352781;28;21139;-71
2022/01/30 17:10:26;;;;;;;17.77;4.95;;;;;;;7.61;49.43;101194.91;10396237;28;20124;-70
2022/01/30 17:15:40;;;;;;;15.13;5.17;;;;;;;7.57;49.17;101198.69;10394981;28;20100;-71
2022/01/30 17:20:47;;;;;;;16.40;6.10;;;;;;;7.61;49.38;101201.09;10397563;28;20061;-69
2022/01/30 17:25:56;;;;;;;12.52;4.95;;;;;;;7.47;49.46;101200.94;10406559;28;20499;-68
2022/01/30 17:30:58;;;;;;;15.65;4.43;;;;;;;7.53;49.92;101197.13;10406166;28;20478;-70
2022/01/30 17:35:59;;;;;;;16.38;5.82;;;;;;;7.66;49.26;101194.69;10405056;28;20083;-70
2022/01/30 17:41:01;;;;;;;20.08;5.97;;;;;;;7.63;48.86;101190.41;10406721;28;20254;-71
2022/01/30 17:46:03;;;;;;;15.43;5.20;;;;;;;7.65;48.33;101188.50;10406687;28;20125;-71
2022/01/30 17:51:07;;;;;;;16.05;5.13;;;;;;;7.70;49.22;101202.41;10411245;28;20060;-69
2022/01/30 17:56:08;;;;;;;15.77;5.22;;;;;;;7.60;48.25;101187.91;10409710;28;20087;-70
2022/01/30 18:01:10;;;;;;;14.32;5.47;;;;;;;7.54;49.28;101182.94;10414120;28;20591;-69
2022/01/30 18:06:16;;;;;;;14.95;4.82;;;;;;;7.46;49.22;101171.88;10411910;28;20087;-70
2022/01/30 18:11:18;;;;;;;12.82;5.20;;;;;;;7.44;49.19;101164.00;10418766;28;20049;-70
2022/01/30 18:16:20;;;;;;;13.40;5.53;;;;;;;7.38;49.12;101162.53;10436058;28;20053;-70
2022/01/30 18:21:21;;;;;;;14.57;5.88;;;;;;;7.44;49.49;101159.56;10407695;28;20057;-69
2022/01/30 18:26:25;;;;;;;18.42;5.95;;;;;;;7.39;49.47;101155.47;10413875;28;20057;-69
2022/01/30 18:31:26;;;;;;;11.73;5.13;;;;;;;7.31;49.76;101157.66;10432287;28;20170;-70
2022/01/30 18:36:30;;;;;;;25.60;7.97;;;;;;;7.26;49.92;101149.94;10434948;28;20068;-71
2022/01/30 18:41:32;;;;;;;21.93;6.03;;;;;;;7.16;49.70;101138.13;10426668;28;20152;-71
2022/01/30 18:46:34;;;;;;;15.63;5.22;;;;;;;7.00;49.87;101130.97;10415513;28;20045;-71
2022/01/30 18:51:35;;;;;;;17.13;6.15;;;;;;;6.98;50.87;101121.41;10411295;28;20056;-70
2022/01/30 18:56:37;;;;;;;16.35;6.28;;;;;;;7.02;50.42;101105.28;10408533;28;20506;-71
2022/01/30 19:01:39;;;;;;;16.73;5.53;;;;;;;6.90;50.09;101100.63;10410550;28;20457;-72
2022/01/30 19:06:42;;;;;;;13.52;5.13;;;;;;;6.84;50.16;101096.50;10411973;28;20057;-72
2022/01/30 19:11:44;;;;;;;11.55;4.53;;;;;;;6.74;50.98;101089.97;10404624;28;20135;-71
2022/01/30 19:16:46;;;;;;;12.23;5.00;;;;;;;6.78;51.58;101090.66;10402635;28;20052;-72
2022/01/30 19:21:47;;;;;;;15.38;5.50;;;;;;;6.70;51.32;101083.97;10414712;28;20053;-72
2022/01/30 19:26:49;;;;;;;15.35;4.53;;;;;;;6.60;51.17;101076.59;10409389;28;20074;-73
2022/01/30 19:31:50;;;;;;;15.88;5.43;;;;;;;6.61;51.20;101065.94;10413824;28;20052;-69
2022/01/30 19:36:52;;;;;;;18.27;6.95;;;;;;;6.57;51.39;101061.72;10414358;28;20622;-72
2022/01/30 19:41:53;;;;;;;11.98;5.10;;;;;;;6.57;51.86;101056.44;10409975;28;20056;-71
2022/01/30 19:46:56;;;;;;;12.73;5.25;;;;;;;6.47;52.49;101050.75;10407189;28;20052;-71
2022/01/30 19:51:57;;;;;;;12.52;5.40;;;;;;;6.46;52.83;101040.25;10409801;28;20128;-69
2022/01/30 19:56:59;;;;;;;17.63;6.30;;;;;;;6.52;52.69;101037.31;10411229;28;20063;-70
2022/01/30 20:02:06;;;;;;;11.90;5.75;;;;;;;6.52;53.44;101029.38;10409701;28;20406;-71
2022/01/30 20:07:08;;;;;;;17.73;7.70;;;;;;;6.50;52.87;101024.16;10408007;28;20297;-70
2022/01/30 20:12:09;;;;;;;17.05;7.47;;;;;;;6.52;53.26;101026.72;10411014;28;20580;-71
2022/01/30 20:17:11;;;;;;;19.98;7.15;;;;;;;6.49;53.30;101011.00;10410195;28;20064;-72
2022/01/30 20:22:13;;;;;;;17.23;6.72;;;;;;;6.52;53.58;101013.50;10408498;28;20109;-69
2022/01/30 20:27:15;;;;;;;13.88;6.03;;;;;;;6.44;53.54;101002.44;10410031;28;20056;-71
2022/01/30 20:32:19;;;;;;;14.75;6.68;;;;;;;6.49;53.49;101003.06;10425152;28;20128;-71
2022/01/30 20:37:21;;;;;;;20.48;6.72;;;;;;;6.41;53.15;100981.44;10446494;28;20041;-72
2022/01/30 20:42:22;;;;;;;14.70;6.50;;;;;;;6.23;54.24;100994.69;10443811;28;20414;-70
2022/01/30 20:47:24;;;;;;;20.95;7.32;;;;;;;6.24;53.99;100985.81;10430537;28;21125;-72
2022/01/30 20:52:25;;;;;;;14.32;6.43;;;;;;;6.25;53.63;100961.09;10418988;28;20436;-69
2022/01/30 20:57:27;;;;;;;17.67;6.47;;;;;;;6.09;53.93;100950.41;10412472;28;20058;-71
2022/01/30 21:02:36;;;;;;;10.52;5.47;;;;;;;6.27;54.37;100953.91;10407812;28;20076;-70
2022/01/30 21:07:38;;;;;;;16.52;5.88;;;;;;;6.29;53.78;100949.44;10413088;28;20053;-70
2022/01/30 21:12:51;;;;;;;15.88;5.97;;;;;;;6.32;54.29;100936.03;10416697;28;20063;-72
2022/01/30 21:17:53;;;;;;;21.58;7.20;;;;;;;6.36;54.27;100915.56;10419280;28;20048;-71
2022/01/30 21:22:54;;;;;;;16.90;5.20;;;;;;;6.41;54.31;100923.25;10414381;28;20053;-72
2022/01/30 21:27:56;;;;;;;17.25;6.78;;;;;;;6.40;54.76;100911.00;10422447;28;20048;-70
2022/01/30 21:32:57;;;;;;;19.45;7.18;;;;;;;6.37;54.81;100875.81;10412602;28;20056;-71
2022/01/30 21:37:59;;;;;;;16.80;7.03;;;;;;;6.39;54.94;100859.03;10422020;28;20117;-71
2022/01/30 21:43:00;;;;;;;16.58;6.85;;;;;;;6.35;55.14;100840.69;10424363;28;20155;-70
2022/01/30 21:48:03;;;;;;;21.33;7.65;;;;;;;6.25;55.11;100818.31;10437299;28;20064;-69
2022/01/30 21:53:04;;;;;;;17.45;7.80;;;;;;;6.18;55.53;100815.16;10421996;28;20077;-70
2022/01/30 21:58:06;;;;;;;16.05;7.45;;;;;;;6.12;55.79;100789.03;10410244;28;20053;-70
2022/01/30 22:03:07;;;;;;;16.33;6.03;;;;;;;6.03;55.93;100754.31;10435172;28;20049;-71
2022/01/30 22:08:10;;;;;;;19.58;7.47;;;;;;;6.02;55.91;100748.19;10428732;28;20072;-69
2022/01/30 22:13:13;;;;;;;19.42;6.78;;;;;;;5.94;56.53;100739.75;10410756;28;20053;-70
2022/01/30 22:18:14;;;;;;;16.67;6.88;;;;;;;5.89;56.26;100723.31;10428236;28;20730;-71
2022/01/30 22:23:17;;;;;;;15.30;7.03;;;;;;;5.87;56.14;100723.41;10446638;28;20115;-70
2022/01/30 22:28:19;;;;;;;15.25;6.80;;;;;;;5.74;56.25;100727.63;10444237;28;20041;-71
2022/01/30 22:33:21;;;;;;;17.58;6.00;;;;;;;5.69;56.60;100740.19;10428945;28;20063;-71
2022/01/30 22:38:23;;;;;;;14.05;5.50;;;;;;;5.59;56.89;100732.75;10421279;28;20060;-70
2022/01/30 22:43:24;;;;;;;18.65;6.25;;;;;;;5.43;57.17;100710.72;10406231;28;20057;-70
2022/01/30 22:48:25;;;;;;;16.42;7.07;;;;;;;5.31;57.65;100697.25;10415777;28;20410;-69
2022/01/30 22:53:27;;;;;;;17.17;6.15;;;;;;;5.25;57.55;100701.97;10411865;28;20091;-69
2022/01/30 22:58:28;;;;;;;12.00;5.25;;;;;;;5.10;58.19;100698.31;10404636;28;20045;-72
2022/01/30 23:03:30;;;;;;;15.57;6.25;;;;;;;5.17;58.54;100681.25;10405540;28;20049;-68
2022/01/30 23:08:31;;;;;;;12.60;5.65;;;;;;;5.24;58.67;100682.66;10435188;28;20063;-68
2022/01/30 23:13:34;;;;;;;17.85;7.43;;;;;;;5.30;58.63;100641.88;10404435;28;20237;-70
2022/01/30 23:18:35;;;;;;;13.18;5.88;;;;;;;5.19;58.72;100671.44;10408834;28;20144;-69
2022/01/30 23:23:37;;;;;;;11.18;5.45;;;;;;;5.18;58.71;100651.28;10404135;28;20047;-70
2022/01/30 23:28:41;;;;;;;13.52;5.47;;;;;;;5.05;59.41;100652.84;10406222;28;20068;-69
2022/01/30 23:33:43;;;;;;;15.05;7.85;;;;;;;5.14;58.91;100634.75;10429652;28;20160;-70
2022/01/30 23:38:46;;;;;;;14.15;6.55;;;;;;;4.96;59.47;100593.47;10399065;28;20456;-71
2022/01/30 23:43:48;;;;;;;16.77;6.55;;;;;;;4.77;59.74;100607.63;10402159;28;20512;-70
2022/01/30 23:48:49;;;;;;;14.55;6.03;;;;;;;4.68;60.27;100609.84;10403962;28;20057;-68
2022/01/30 23:53:50;;;;;;;15.48;5.93;;;;;;;4.52;60.81;100615.91;10432589;28;20119;-69
2022/01/30 23:58:52;;;;;;;12.77;5.68;;;;;;;4.66;60.69;100606.47;10404738;28;20501;-69
